Piedmont, Wyoming
Current Conditions -  °F | °C
As of 3:55 AM on Monday 20 Oct 2014 (Local Time) from KFBR Reporting Station
Clear Clear  
Wind Chill: 40°   Ceiling: Unl
Heat Index: 44°   Visibility: NA
Dew Point: 31°   Wind: 7mph
Humidity: 60%   Direction: 280°W
Pressure: 30.2"   Gusts: NA
Location:  41.2998°N, 110.328°W
Report Text: KFBR 200955Z AUTO 28006KT CLR 07/M01 A3020 RMK AO2 T00651008 PWINO
Loading
Personal Weather Stations






























Interactive Weather Map
Tropical Storm Tracking
New forecast layout! Learn more

10-Day Weather Forecast

Advertisements
Track Severe Weather on mobile